KGHW

Glenwood Municipal Airport

Glenwood, Minnesota, USA
METAR KGHW 160115Z AUTO 19016KT 10SM CLR 03/M02 A2990 RMK AO2
Observed Flight Rules
Dec-16 @ 01:15 UTC (19 minutes ago) Visual Flight Rules
Wind Visibility Clouds
190° at 16 knots 10 miles
  • Clear skies
Temperatures Readings
Current 3°C / 37°F
Dewpoint -2°C / 28°F
Humidity 70%
Altimeter 29.9" Hg
Pressure 1013 hPa
Elevation 425
METAR KGHW 160115Z AUTO 19016KT 10SM CLR 03/M02 A2990 RMK AO2
Observed Flight Rules
Dec-16 @ 01:15 UTC
(19 minutes ago)
VFR
Wind Visibility
190° at 16 knots 10 miles
Clouds
  • Clear skies
Temperature Dewpoint
3°C / 37°F -2°C / 28°F
Humidity Altimeter Pressure
70% 29.9" Hg 1013 hPa